sensor_id;sensor_type;location;lat;lon;timestamp;pressure;altitude;pressure_sealevel;temperature;humidity
39555;BME280;25231;48.746;9.234;2023-04-05T00:00:09;97215.44;;;1.02;67.32
39555;BME280;25231;48.746;9.234;2023-04-05T00:02:35;97213.84;;;1.09;67.85
39555;BME280;25231;48.746;9.234;2023-04-05T00:05:02;97214.47;;;1.03;67.37
39555;BME280;25231;48.746;9.234;2023-04-05T00:07:29;97218.53;;;1.06;67.62
39555;BME280;25231;48.746;9.234;2023-04-05T00:09:58;97208.81;;;1.00;67.12
39555;BME280;25231;48.746;9.234;2023-04-05T00:12:23;97206.41;;;0.98;67.23
39555;BME280;25231;48.746;9.234;2023-04-05T00:14:49;97209.97;;;1.05;67.39
39555;BME280;25231;48.746;9.234;2023-04-05T00:17:15;97205.78;;;1.12;66.93
39555;BME280;25231;48.746;9.234;2023-04-05T00:19:42;97210.59;;;1.07;66.58
39555;BME280;25231;48.746;9.234;2023-04-05T00:22:07;97200.56;;;0.96;67.49
39555;BME280;25231;48.746;9.234;2023-04-05T00:24:35;97193.50;;;0.98;67.57
39555;BME280;25231;48.746;9.234;2023-04-05T00:27:03;97191.06;;;0.97;67.85
39555;BME280;25231;48.746;9.234;2023-04-05T00:29:29;97184.63;;;1.01;68.01
39555;BME280;25231;48.746;9.234;2023-04-05T00:31:55;97186.91;;;1.04;67.81
39555;BME280;25231;48.746;9.234;2023-04-05T00:34:21;97183.31;;;0.97;68.16
39555;BME280;25231;48.746;9.234;2023-04-05T00:36:48;97178.59;;;0.84;68.26
39555;BME280;25231;48.746;9.234;2023-04-05T00:39:13;97180.41;;;0.92;68.53
39555;BME280;25231;48.746;9.234;2023-04-05T00:41:38;97179.91;;;0.88;68.15
39555;BME280;25231;48.746;9.234;2023-04-05T00:44:05;97177.81;;;0.83;68.93
39555;BME280;25231;48.746;9.234;2023-04-05T00:46:35;97173.81;;;0.89;68.81
39555;BME280;25231;48.746;9.234;2023-04-05T00:49:02;97176.19;;;0.91;68.33
39555;BME280;25231;48.746;9.234;2023-04-05T00:51:29;97176.81;;;0.84;68.31
39555;BME280;25231;48.746;9.234;2023-04-05T00:53:55;97175.84;;;0.77;68.97
39555;BME280;25231;48.746;9.234;2023-04-05T00:56:21;97168.59;;;0.81;69.40
39555;BME280;25231;48.746;9.234;2023-04-05T00:58:47;97168.06;;;0.69;69.62
39555;BME280;25231;48.746;9.234;2023-04-05T01:01:18;97164.03;;;0.67;70.11
39555;BME280;25231;48.746;9.234;2023-04-05T01:03:48;97164.19;;;0.65;70.66
39555;BME280;25231;48.746;9.234;2023-04-05T01:06:43;97161.28;;;0.68;70.67
39555;BME280;25231;48.746;9.234;2023-04-05T01:09:39;97154.06;;;0.72;70.91
39555;BME280;25231;48.746;9.234;2023-04-05T01:12:11;97148.56;;;0.67;70.67
39555;BME280;25231;48.746;9.234;2023-04-05T01:14:53;97152.44;;;0.71;71.03
39555;BME280;25231;48.746;9.234;2023-04-05T01:17:21;97146.31;;;0.72;71.34
39555;BME280;25231;48.746;9.234;2023-04-05T01:19:48;97145.63;;;0.62;71.20
39555;BME280;25231;48.746;9.234;2023-04-05T01:22:49;97141.97;;;0.72;70.82
39555;BME280;25231;48.746;9.234;2023-04-05T01:33:36;97125.16;;;0.60;71.16
39555;BME280;25231;48.746;9.234;2023-04-05T01:38:52;97120.03;;;0.68;71.35
39555;BME280;25231;48.746;9.234;2023-04-05T01:41:18;97125.47;;;0.57;71.64
39555;BME280;25231;48.746;9.234;2023-04-05T01:43:43;97122.41;;;0.62;71.39
39555;BME280;25231;48.746;9.234;2023-04-05T01:46:09;97119.19;;;0.60;70.71
39555;BME280;25231;48.746;9.234;2023-04-05T01:48:34;97123.22;;;0.62;71.01
39555;BME280;25231;48.746;9.234;2023-04-05T01:50:59;97116.44;;;0.53;71.14
39555;BME280;25231;48.746;9.234;2023-04-05T01:53:25;97123.34;;;0.45;71.57
39555;BME280;25231;48.746;9.234;2023-04-05T01:55:50;97122.06;;;0.49;71.82
39555;BME280;25231;48.746;9.234;2023-04-05T01:58:15;97118.53;;;0.50;71.48
39555;BME280;25231;48.746;9.234;2023-04-05T02:00:41;97118.00;;;0.46;71.44
39555;BME280;25231;48.746;9.234;2023-04-05T02:03:06;97122.06;;;0.57;71.06
39555;BME280;25231;48.746;9.234;2023-04-05T02:05:31;97116.81;;;0.66;70.54
39555;BME280;25231;48.746;9.234;2023-04-05T02:07:57;97116.63;;;0.60;71.43
39555;BME280;25231;48.746;9.234;2023-04-05T02:10:23;97117.66;;;0.33;72.75
39555;BME280;25231;48.746;9.234;2023-04-05T02:12:48;97106.19;;;0.27;73.60
39555;BME280;25231;48.746;9.234;2023-04-05T02:15:14;97106.06;;;0.37;72.55
39555;BME280;25231;48.746;9.234;2023-04-05T02:17:39;97103.94;;;0.32;72.92
39555;BME280;25231;48.746;9.234;2023-04-05T02:20:10;97101.66;;;0.29;72.76
39555;BME280;25231;48.746;9.234;2023-04-05T02:22:36;97106.81;;;0.29;72.95
39555;BME280;25231;48.746;9.234;2023-04-05T02:25:04;97108.25;;;0.24;73.64
39555;BME280;25231;48.746;9.234;2023-04-05T02:27:31;97104.75;;;0.33;73.22
39555;BME280;25231;48.746;9.234;2023-04-05T02:29:56;97101.38;;;0.32;73.25
39555;BME280;25231;48.746;9.234;2023-04-05T02:32:22;97100.56;;;0.40;72.62
39555;BME280;25231;48.746;9.234;2023-04-05T02:34:48;97094.44;;;0.33;72.79
39555;BME280;25231;48.746;9.234;2023-04-05T02:37:14;97096.38;;;0.31;73.72
39555;BME280;25231;48.746;9.234;2023-04-05T02:39:39;97092.97;;;0.22;74.39
39555;BME280;25231;48.746;9.234;2023-04-05T02:42:05;97099.22;;;0.20;74.16
39555;BME280;25231;48.746;9.234;2023-04-05T02:44:30;97094.88;;;0.28;74.12
39555;BME280;25231;48.746;9.234;2023-04-05T02:46:55;97094.25;;;0.26;74.00
39555;BME280;25231;48.746;9.234;2023-04-05T02:49:21;97099.53;;;0.17;73.82
39555;BME280;25231;48.746;9.234;2023-04-05T02:51:46;97091.94;;;0.15;73.68
39555;BME280;25231;48.746;9.234;2023-04-05T02:54:12;97088.91;;;0.20;73.74
39555;BME280;25231;48.746;9.234;2023-04-05T02:56:37;97093.38;;;0.10;74.93
39555;BME280;25231;48.746;9.234;2023-04-05T02:59:02;97088.72;;;0.13;74.90
39555;BME280;25231;48.746;9.234;2023-04-05T03:01:28;97083.69;;;0.12;75.35
39555;BME280;25231;48.746;9.234;2023-04-05T03:03:53;97085.13;;;0.06;74.59
39555;BME280;25231;48.746;9.234;2023-04-05T03:06:19;97088.78;;;0.29;74.57
39555;BME280;25231;48.746;9.234;2023-04-05T03:08:45;97089.38;;;0.15;74.53
39555;BME280;25231;48.746;9.234;2023-04-05T03:11:13;97089.72;;;0.20;75.00
39555;BME280;25231;48.746;9.234;2023-04-05T03:13:38;97087.75;;;0.14;75.17
39555;BME280;25231;48.746;9.234;2023-04-05T03:16:04;97091.59;;;0.10;75.73
39555;BME280;25231;48.746;9.234;2023-04-05T03:18:30;97085.44;;;0.03;74.32
39555;BME280;25231;48.746;9.234;2023-04-05T03:20:56;97080.16;;;0.13;74.17
39555;BME280;25231;48.746;9.234;2023-04-05T03:23:27;97083.25;;;0.16;73.95
39555;BME280;25231;48.746;9.234;2023-04-05T03:25:58;97084.72;;;0.19;74.96
39555;BME280;25231;48.746;9.234;2023-04-05T03:28:24;97079.19;;;0.06;75.68
39555;BME280;25231;48.746;9.234;2023-04-05T03:30:50;97079.00;;;-0.01;75.68
39555;BME280;25231;48.746;9.234;2023-04-05T03:33:16;97081.72;;;-0.03;75.37
39555;BME280;25231;48.746;9.234;2023-04-05T03:35:42;97076.75;;;0.04;74.88
39555;BME280;25231;48.746;9.234;2023-04-05T03:38:07;97075.75;;;-0.03;75.28
39555;BME280;25231;48.746;9.234;2023-04-05T03:40:32;97071.25;;;-0.01;75.43
39555;BME280;25231;48.746;9.234;2023-04-05T03:42:58;97078.47;;;-0.05;75.29
39555;BME280;25231;48.746;9.234;2023-04-05T03:45:23;97072.50;;;-0.05;74.68
39555;BME280;25231;48.746;9.234;2023-04-05T03:47:49;97076.69;;;-0.04;74.98
39555;BME280;25231;48.746;9.234;2023-04-05T03:50:14;97074.59;;;-0.09;75.87
39555;BME280;25231;48.746;9.234;2023-04-05T03:52:40;97076.00;;;-0.14;76.79
39555;BME280;25231;48.746;9.234;2023-04-05T03:55:05;97076.75;;;-0.22;76.81
39555;BME280;25231;48.746;9.234;2023-04-05T03:57:32;97071.25;;;-0.27;76.62
39555;BME280;25231;48.746;9.234;2023-04-05T03:59:57;97067.25;;;-0.29;77.07
39555;BME280;25231;48.746;9.234;2023-04-05T04:02:23;97079.34;;;-0.22;77.08
39555;BME280;25231;48.746;9.234;2023-04-05T04:04:48;97074.97;;;-0.29;77.19
39555;BME280;25231;48.746;9.234;2023-04-05T04:07:13;97072.38;;;-0.29;77.31
39555;BME280;25231;48.746;9.234;2023-04-05T04:09:39;97071.72;;;-0.31;77.29
39555;BME280;25231;48.746;9.234;2023-04-05T04:12:05;97072.75;;;-0.24;76.94
39555;BME280;25231;48.746;9.234;2023-04-05T04:14:33;97063.94;;;-0.14;75.70
39555;BME280;25231;48.746;9.234;2023-04-05T04:16:59;97063.63;;;-0.11;75.59
39555;BME280;25231;48.746;9.234;2023-04-05T04:19:25;97067.19;;;-0.12;76.10
39555;BME280;25231;48.746;9.234;2023-04-05T04:21:50;97063.19;;;-0.32;76.69
39555;BME280;25231;48.746;9.234;2023-04-05T04:24:16;97072.63;;;-0.40;77.30
39555;BME280;25231;48.746;9.234;2023-04-05T04:26:45;97078.31;;;-0.55;77.45
39555;BME280;25231;48.746;9.234;2023-04-05T04:29:10;97076.16;;;-0.42;77.04
39555;BME280;25231;48.746;9.234;2023-04-05T04:31:38;97072.44;;;-0.47;77.12
39555;BME280;25231;48.746;9.234;2023-04-05T04:34:04;97076.50;;;-0.62;79.07
39555;BME280;25231;48.746;9.234;2023-04-05T04:36:30;97075.97;;;-0.66;80.78
39555;BME280;25231;48.746;9.234;2023-04-05T04:39:03;97081.00;;;-0.82;82.36
39555;BME280;25231;48.746;9.234;2023-04-05T04:41:32;97074.19;;;-0.91;84.02
39555;BME280;25231;48.746;9.234;2023-04-05T04:44:02;97076.16;;;-0.85;84.27
39555;BME280;25231;48.746;9.234;2023-04-05T04:46:29;97073.50;;;-0.75;84.82
39555;BME280;25231;48.746;9.234;2023-04-05T04:48:59;97079.84;;;-0.88;87.54
39555;BME280;25231;48.746;9.234;2023-04-05T04:51:30;97075.03;;;-0.82;88.32
39555;BME280;25231;48.746;9.234;2023-04-05T04:53:55;97072.78;;;-1.03;91.14
39555;BME280;25231;48.746;9.234;2023-04-05T04:56:21;97073.38;;;-0.92;91.34
39555;BME280;25231;48.746;9.234;2023-04-05T04:58:46;97078.16;;;-0.97;92.76
39555;BME280;25231;48.746;9.234;2023-04-05T05:01:11;97073.06;;;-0.89;93.19
39555;BME280;25231;48.746;9.234;2023-04-05T05:03:37;97081.75;;;-0.90;93.68
39555;BME280;25231;48.746;9.234;2023-04-05T05:06:03;97076.00;;;-0.84;93.94
39555;BME280;25231;48.746;9.234;2023-04-05T05:08:29;97076.22;;;-0.77;94.32
39555;BME280;25231;48.746;9.234;2023-04-05T05:10:54;97085.09;;;-0.71;94.07
39555;BME280;25231;48.746;9.234;2023-04-05T05:13:20;97080.69;;;-0.61;94.39
39555;BME280;25231;48.746;9.234;2023-04-05T05:15:45;97083.88;;;-0.42;93.62
39555;BME280;25231;48.746;9.234;2023-04-05T05:18:10;97089.88;;;-0.59;94.43
39555;BME280;25231;48.746;9.234;2023-04-05T05:20:36;97084.56;;;-0.39;94.30
39555;BME280;25231;48.746;9.234;2023-04-05T05:23:02;97088.53;;;-0.19;93.00
39555;BME280;25231;48.746;9.234;2023-04-05T05:25:29;97082.88;;;0.03;92.01
39555;BME280;25231;48.746;9.234;2023-04-05T05:27:55;97083.53;;;0.05;91.47
39555;BME280;25231;48.746;9.234;2023-04-05T05:30:20;97086.81;;;0.23;90.48
39555;BME280;25231;48.746;9.234;2023-04-05T05:32:46;97093.94;;;0.29;89.67
39555;BME280;25231;48.746;9.234;2023-04-05T05:35:11;97090.28;;;0.40;88.89
39555;BME280;25231;48.746;9.234;2023-04-05T05:37:37;97092.28;;;0.54;88.19
39555;BME280;25231;48.746;9.234;2023-04-05T05:40:02;97088.50;;;0.99;86.25
39555;BME280;25231;48.746;9.234;2023-04-05T05:42:31;97087.41;;;1.25;83.32
39555;BME280;25231;48.746;9.234;2023-04-05T05:44:58;97082.06;;;1.35;81.83
39555;BME280;25231;48.746;9.234;2023-04-05T05:47:24;97083.22;;;1.16;80.32
39555;BME280;25231;48.746;9.234;2023-04-05T05:49:49;97087.25;;;1.27;80.40
39555;BME280;25231;48.746;9.234;2023-04-05T05:52:15;97086.91;;;1.30;80.72
39555;BME280;25231;48.746;9.234;2023-04-05T05:54:40;97077.56;;;1.61;80.21
39555;BME280;25231;48.746;9.234;2023-04-05T05:57:06;97074.00;;;1.54;79.19
39555;BME280;25231;48.746;9.234;2023-04-05T05:59:31;97073.34;;;1.52;79.19
39555;BME280;25231;48.746;9.234;2023-04-05T06:01:56;97076.19;;;1.98;78.91
39555;BME280;25231;48.746;9.234;2023-04-05T06:04:21;97084.00;;;2.29;78.23
39555;BME280;25231;48.746;9.234;2023-04-05T06:06:47;97085.16;;;2.57;76.29
39555;BME280;25231;48.746;9.234;2023-04-05T06:09:14;97085.19;;;2.10;77.57
39555;BME280;25231;48.746;9.234;2023-04-05T06:11:42;97086.56;;;2.37;75.26
39555;BME280;25231;48.746;9.234;2023-04-05T06:14:07;97090.31;;;2.18;76.49
39555;BME280;25231;48.746;9.234;2023-04-05T06:16:33;97089.44;;;2.42;74.97
39555;BME280;25231;48.746;9.234;2023-04-05T06:19:00;97089.72;;;2.55;73.28
39555;BME280;25231;48.746;9.234;2023-04-05T06:21:25;97091.00;;;2.59;73.41
39555;BME280;25231;48.746;9.234;2023-04-05T06:23:51;97089.66;;;2.32;71.19
39555;BME280;25231;48.746;9.234;2023-04-05T06:26:21;97096.53;;;2.48;69.71
39555;BME280;25231;48.746;9.234;2023-04-05T06:28:49;97089.84;;;2.62;70.52
39555;BME280;25231;48.746;9.234;2023-04-05T06:31:15;97095.72;;;2.56;70.80
39555;BME280;25231;48.746;9.234;2023-04-05T06:33:42;97099.66;;;2.35;70.57
39555;BME280;25231;48.746;9.234;2023-04-05T06:36:07;97104.91;;;2.89;69.88
39555;BME280;25231;48.746;9.234;2023-04-05T06:38:33;97103.78;;;3.14;67.22
39555;BME280;25231;48.746;9.234;2023-04-05T06:40:58;97104.53;;;2.69;67.89
39555;BME280;25231;48.746;9.234;2023-04-05T06:43:24;97102.81;;;2.84;66.89
39555;BME280;25231;48.746;9.234;2023-04-05T06:45:49;97094.63;;;3.04;66.17
39555;BME280;25231;48.746;9.234;2023-04-05T06:48:15;97094.13;;;2.77;68.62
39555;BME280;25231;48.746;9.234;2023-04-05T06:50:40;97090.72;;;3.30;72.32
39555;BME280;25231;48.746;9.234;2023-04-05T06:53:06;97086.88;;;3.64;69.39
39555;BME280;25231;48.746;9.234;2023-04-05T06:55:32;97100.25;;;3.53;68.14
39555;BME280;25231;48.746;9.234;2023-04-05T06:57:57;97097.13;;;3.57;66.71
39555;BME280;25231;48.746;9.234;2023-04-05T07:00:23;97103.44;;;3.17;65.63
39555;BME280;25231;48.746;9.234;2023-04-05T07:02:48;97108.09;;;2.99;68.10
39555;BME280;25231;48.746;9.234;2023-04-05T07:05:14;97101.84;;;3.39;67.61
39555;BME280;25231;48.746;9.234;2023-04-05T07:07:41;97105.91;;;3.56;65.87
39555;BME280;25231;48.746;9.234;2023-04-05T07:10:08;97100.53;;;3.95;64.97
39555;BME280;25231;48.746;9.234;2023-04-05T07:12:33;97106.16;;;4.13;64.61
39555;BME280;25231;48.746;9.234;2023-04-05T07:14:59;97106.44;;;4.04;63.73
39555;BME280;25231;48.746;9.234;2023-04-05T07:17:24;97105.25;;;3.77;64.76
39555;BME280;25231;48.746;9.234;2023-04-05T07:19:50;97110.91;;;4.10;62.58
39555;BME280;25231;48.746;9.234;2023-04-05T07:22:15;97108.09;;;3.82;65.15
39555;BME280;25231;48.746;9.234;2023-04-05T07:24:41;97111.88;;;3.57;60.97
39555;BME280;25231;48.746;9.234;2023-04-05T07:27:06;97112.88;;;3.56;58.99
39555;BME280;25231;48.746;9.234;2023-04-05T07:29:32;97109.56;;;3.99;58.75
39555;BME280;25231;48.746;9.234;2023-04-05T07:31:59;97106.06;;;3.78;59.53
39555;BME280;25231;48.746;9.234;2023-04-05T07:34:24;97105.28;;;3.69;61.17
39555;BME280;25231;48.746;9.234;2023-04-05T07:36:51;97104.84;;;4.32;60.25
39555;BME280;25231;48.746;9.234;2023-04-05T07:39:16;97104.03;;;4.32;60.47
39555;BME280;25231;48.746;9.234;2023-04-05T07:41:42;97104.50;;;3.68;59.31
39555;BME280;25231;48.746;9.234;2023-04-05T07:44:08;97106.94;;;3.47;59.81
39555;BME280;25231;48.746;9.234;2023-04-05T07:46:33;97105.31;;;3.46;59.42
39555;BME280;25231;48.746;9.234;2023-04-05T07:48:59;97100.38;;;3.59;56.66
39555;BME280;25231;48.746;9.234;2023-04-05T07:51:24;97109.53;;;3.85;56.46
39555;BME280;25231;48.746;9.234;2023-04-05T07:53:51;97108.63;;;3.78;56.91
39555;BME280;25231;48.746;9.234;2023-04-05T07:56:16;97111.63;;;3.89;56.40
39555;BME280;25231;48.746;9.234;2023-04-05T07:58:42;97115.00;;;3.52;55.61
39555;BME280;25231;48.746;9.234;2023-04-05T08:01:09;97105.66;;;3.66;55.73
39555;BME280;25231;48.746;9.234;2023-04-05T08:03:35;97110.75;;;3.74;55.06
39555;BME280;25231;48.746;9.234;2023-04-05T08:06:11;97110.53;;;3.84;54.01
39555;BME280;25231;48.746;9.234;2023-04-05T08:08:37;97127.22;;;3.81;54.73
39555;BME280;25231;48.746;9.234;2023-04-05T08:11:03;97115.09;;;3.96;52.10
39555;BME280;25231;48.746;9.234;2023-04-05T08:13:28;97115.03;;;4.48;52.10
39555;BME280;25231;48.746;9.234;2023-04-05T08:15:56;97113.88;;;4.22;52.36
39555;BME280;25231;48.746;9.234;2023-04-05T08:18:22;97115.47;;;4.52;52.32
39555;BME280;25231;48.746;9.234;2023-04-05T08:20:52;97116.75;;;4.56;51.92
39555;BME280;25231;48.746;9.234;2023-04-05T08:23:17;97110.66;;;4.49;51.73
39555;BME280;25231;48.746;9.234;2023-04-05T08:25:43;97115.56;;;4.58;51.03
39555;BME280;25231;48.746;9.234;2023-04-05T08:28:08;97113.94;;;4.72;51.49
39555;BME280;25231;48.746;9.234;2023-04-05T08:30:34;97111.06;;;4.82;49.63
39555;BME280;25231;48.746;9.234;2023-04-05T08:32:59;97111.47;;;5.21;48.65
39555;BME280;25231;48.746;9.234;2023-04-05T08:35:25;97107.19;;;4.92;49.50
39555;BME280;25231;48.746;9.234;2023-04-05T08:37:50;97112.31;;;5.07;49.32
39555;BME280;25231;48.746;9.234;2023-04-05T08:40:15;97124.88;;;5.03;47.80
39555;BME280;25231;48.746;9.234;2023-04-05T08:42:45;97114.66;;;5.02;47.91
39555;BME280;25231;48.746;9.234;2023-04-05T08:45:16;97116.59;;;4.93;47.62
39555;BME280;25231;48.746;9.234;2023-04-05T08:47:44;97109.63;;;5.36;46.16
39555;BME280;25231;48.746;9.234;2023-04-05T08:50:10;97113.09;;;5.22;45.49
39555;BME280;25231;48.746;9.234;2023-04-05T08:52:38;97117.06;;;5.39;46.18
39555;BME280;25231;48.746;9.234;2023-04-05T08:55:07;97124.94;;;5.46;45.74
39555;BME280;25231;48.746;9.234;2023-04-05T08:57:36;97121.66;;;5.01;48.37
39555;BME280;25231;48.746;9.234;2023-04-05T09:00:02;97121.22;;;5.34;46.83
39555;BME280;25231;48.746;9.234;2023-04-05T09:02:28;97119.28;;;5.64;44.94
39555;BME280;25231;48.746;9.234;2023-04-05T09:04:54;97115.06;;;5.41;45.21
39555;BME280;25231;48.746;9.234;2023-04-05T09:07:20;97117.09;;;5.03;46.91
39555;BME280;25231;48.746;9.234;2023-04-05T09:09:48;97112.50;;;5.63;46.33
39555;BME280;25231;48.746;9.234;2023-04-05T09:12:19;97108.06;;;5.84;45.35
39555;BME280;25231;48.746;9.234;2023-04-05T09:14:46;97109.41;;;5.80;45.78
39555;BME280;25231;48.746;9.234;2023-04-05T09:17:15;97112.53;;;5.91;45.71
39555;BME280;25231;48.746;9.234;2023-04-05T09:19:41;97112.00;;;5.80;45.52
39555;BME280;25231;48.746;9.234;2023-04-05T09:22:08;97104.91;;;5.89;45.83
39555;BME280;25231;48.746;9.234;2023-04-05T09:24:36;97109.88;;;6.12;45.39
39555;BME280;25231;48.746;9.234;2023-04-05T09:27:13;97107.97;;;6.27;44.71
39555;BME280;25231;48.746;9.234;2023-04-05T09:29:41;97113.03;;;5.79;46.16
39555;BME280;25231;48.746;9.234;2023-04-05T09:32:09;97120.66;;;5.60;46.42
39555;BME280;25231;48.746;9.234;2023-04-05T09:34:35;97121.19;;;4.77;47.78
39555;BME280;25231;48.746;9.234;2023-04-05T09:37:17;97112.69;;;4.53;48.37
39555;BME280;25231;48.746;9.234;2023-04-05T09:39:45;97119.94;;;5.09;48.43
39555;BME280;25231;48.746;9.234;2023-04-05T09:44:55;97116.59;;;5.15;48.78
39555;BME280;25231;48.746;9.234;2023-04-05T09:47:28;97111.78;;;5.12;48.35
39555;BME280;25231;48.746;9.234;2023-04-05T09:50:02;97114.88;;;4.86;49.17
39555;BME280;25231;48.746;9.234;2023-04-05T09:52:31;97108.41;;;4.96;49.32
39555;BME280;25231;48.746;9.234;2023-04-05T09:55:03;97107.59;;;4.96;49.39
39555;BME280;25231;48.746;9.234;2023-04-05T09:57:35;97106.75;;;4.74;49.01
39555;BME280;25231;48.746;9.234;2023-04-05T10:00:02;97109.78;;;4.92;48.64
39555;BME280;25231;48.746;9.234;2023-04-05T10:02:37;97102.78;;;5.29;48.41
39555;BME280;25231;48.746;9.234;2023-04-05T10:05:08;97097.00;;;5.12;48.99
39555;BME280;25231;48.746;9.234;2023-04-05T10:07:38;97104.84;;;4.97;48.71
39555;BME280;25231;48.746;9.234;2023-04-05T10:10:04;97100.47;;;5.19;48.82
39555;BME280;25231;48.746;9.234;2023-04-05T10:12:31;97104.75;;;5.48;47.90
39555;BME280;25231;48.746;9.234;2023-04-05T10:14:57;97087.69;;;5.18;47.99
39555;BME280;25231;48.746;9.234;2023-04-05T10:17:23;97095.88;;;5.00;48.91
39555;BME280;25231;48.746;9.234;2023-04-05T10:20:06;97086.28;;;4.65;49.20
39555;BME280;25231;48.746;9.234;2023-04-05T10:28:30;97084.34;;;4.88;48.84
39555;BME280;25231;48.746;9.234;2023-04-05T10:31:11;97085.56;;;5.28;48.18
39555;BME280;25231;48.746;9.234;2023-04-05T10:33:44;97077.72;;;5.21;48.92
39555;BME280;25231;48.746;9.234;2023-04-05T10:36:32;97088.50;;;5.03;48.49
39555;BME280;25231;48.746;9.234;2023-04-05T10:41:33;97077.63;;;5.15;47.33
39555;BME280;25231;48.746;9.234;2023-04-05T10:44:01;97071.09;;;5.40;49.12
39555;BME280;25231;48.746;9.234;2023-04-05T10:46:29;97075.75;;;5.23;47.52
39555;BME280;25231;48.746;9.234;2023-04-05T10:49:32;97062.56;;;5.74;47.36
39555;BME280;25231;48.746;9.234;2023-04-05T10:52:02;97068.59;;;5.81;46.26
39555;BME280;25231;48.746;9.234;2023-04-05T10:54:31;97069.41;;;6.09;46.55
39555;BME280;25231;48.746;9.234;2023-04-05T10:56:57;97065.78;;;6.38;45.68
39555;BME280;25231;48.746;9.234;2023-04-05T10:59:24;97069.56;;;6.29;44.70
39555;BME280;25231;48.746;9.234;2023-04-05T11:01:52;97067.84;;;6.49;44.54
39555;BME280;25231;48.746;9.234;2023-04-05T11:04:17;97065.69;;;6.18;44.66
39555;BME280;25231;48.746;9.234;2023-04-05T11:06:43;97065.88;;;6.64;45.30
39555;BME280;25231;48.746;9.234;2023-04-05T11:09:19;97054.56;;;6.98;44.45
39555;BME280;25231;48.746;9.234;2023-04-05T11:11:50;97059.25;;;7.36;43.66
39555;BME280;25231;48.746;9.234;2023-04-05T11:14:25;97054.63;;;7.38;43.04
39555;BME280;25231;48.746;9.234;2023-04-05T11:16:59;97052.94;;;6.37;43.56
39555;BME280;25231;48.746;9.234;2023-04-05T11:19:47;97045.47;;;6.61;44.57
39555;BME280;25231;48.746;9.234;2023-04-05T11:22:24;97050.38;;;6.91;43.74
39555;BME280;25231;48.746;9.234;2023-04-05T11:24:52;97044.78;;;7.07;42.85
39555;BME280;25231;48.746;9.234;2023-04-05T11:27:44;97037.56;;;7.16;41.89
39555;BME280;25231;48.746;9.234;2023-04-05T11:30:09;97029.38;;;7.19;42.04
39555;BME280;25231;48.746;9.234;2023-04-05T11:32:42;97034.56;;;7.12;42.04
39555;BME280;25231;48.746;9.234;2023-04-05T11:35:16;97028.34;;;7.13;42.46
39555;BME280;25231;48.746;9.234;2023-04-05T11:40:25;97023.94;;;7.20;42.20
39555;BME280;25231;48.746;9.234;2023-04-05T11:43:07;97025.94;;;7.25;41.86
39555;BME280;25231;48.746;9.234;2023-04-05T11:45:35;97024.13;;;7.12;42.78
39555;BME280;25231;48.746;9.234;2023-04-05T11:48:07;97021.00;;;6.56;43.05
39555;BME280;25231;48.746;9.234;2023-04-05T11:50:34;97020.34;;;6.47;42.97
39555;BME280;25231;48.746;9.234;2023-04-05T11:53:16;97016.56;;;6.09;43.25
39555;BME280;25231;48.746;9.234;2023-04-05T11:55:44;97012.56;;;6.06;43.33
39555;BME280;25231;48.746;9.234;2023-04-05T11:58:15;97018.47;;;6.28;43.30
39555;BME280;25231;48.746;9.234;2023-04-05T12:00:42;97012.97;;;6.10;43.19
39555;BME280;25231;48.746;9.234;2023-04-05T12:03:12;97018.25;;;6.23;43.64
39555;BME280;25231;48.746;9.234;2023-04-05T12:05:47;97011.03;;;6.25;43.31
39555;BME280;25231;48.746;9.234;2023-04-05T12:08:14;97019.91;;;6.37;43.14
39555;BME280;25231;48.746;9.234;2023-04-05T12:10:39;97010.91;;;6.33;43.82
39555;BME280;25231;48.746;9.234;2023-04-05T12:13:05;97013.31;;;6.35;42.88
39555;BME280;25231;48.746;9.234;2023-04-05T12:15:30;97011.28;;;6.37;43.07
39555;BME280;25231;48.746;9.234;2023-04-05T12:17:56;96998.81;;;6.19;43.67
39555;BME280;25231;48.746;9.234;2023-04-05T12:20:24;96994.56;;;6.59;43.25
39555;BME280;25231;48.746;9.234;2023-04-05T12:22:55;96985.66;;;6.34;43.32
39555;BME280;25231;48.746;9.234;2023-04-05T12:25:21;96998.63;;;6.81;42.94
39555;BME280;25231;48.746;9.234;2023-04-05T12:27:47;96999.25;;;6.96;42.93
39555;BME280;25231;48.746;9.234;2023-04-05T12:30:16;96988.06;;;7.29;43.80
39555;BME280;25231;48.746;9.234;2023-04-05T12:32:50;96986.03;;;7.31;42.04
39555;BME280;25231;48.746;9.234;2023-04-05T12:35:36;96984.00;;;6.87;41.82
39555;BME280;25231;48.746;9.234;2023-04-05T12:38:04;96987.03;;;6.90;42.14
39555;BME280;25231;48.746;9.234;2023-04-05T12:40:33;96984.00;;;6.87;41.71
39555;BME280;25231;48.746;9.234;2023-04-05T12:43:08;96978.03;;;7.06;41.41
39555;BME280;25231;48.746;9.234;2023-04-05T12:45:34;96973.59;;;7.26;41.21
39555;BME280;25231;48.746;9.234;2023-04-05T12:48:13;96985.25;;;7.10;41.47
39555;BME280;25231;48.746;9.234;2023-04-05T12:50:46;96982.38;;;6.86;42.19
39555;BME280;25231;48.746;9.234;2023-04-05T12:53:20;96972.38;;;6.83;41.59
39555;BME280;25231;48.746;9.234;2023-04-05T12:55:51;96970.97;;;6.93;41.77
39555;BME280;25231;48.746;9.234;2023-04-05T12:58:18;96970.97;;;6.87;41.53
39555;BME280;25231;48.746;9.234;2023-04-05T13:00:44;96964.19;;;7.12;41.91
39555;BME280;25231;48.746;9.234;2023-04-05T13:03:15;96963.59;;;7.23;41.31
39555;BME280;25231;48.746;9.234;2023-04-05T13:05:41;96961.00;;;7.23;41.24
39555;BME280;25231;48.746;9.234;2023-04-05T13:08:06;96952.97;;;7.12;40.99
39555;BME280;25231;48.746;9.234;2023-04-05T13:10:32;96961.19;;;6.95;41.40
39555;BME280;25231;48.746;9.234;2023-04-05T13:12:57;96955.38;;;7.13;41.52
39555;BME280;25231;48.746;9.234;2023-04-05T13:15:22;96953.56;;;7.20;41.49
39555;BME280;25231;48.746;9.234;2023-04-05T13:17:48;96955.78;;;7.30;41.70
39555;BME280;25231;48.746;9.234;2023-04-05T13:20:15;96953.78;;;7.19;40.71
39555;BME280;25231;48.746;9.234;2023-04-05T13:22:41;96953.16;;;7.17;40.82
39555;BME280;25231;48.746;9.234;2023-04-05T13:25:07;96944.94;;;6.93;40.64
39555;BME280;25231;48.746;9.234;2023-04-05T13:27:33;96946.53;;;7.21;40.75
39555;BME280;25231;48.746;9.234;2023-04-05T13:29:58;96940.09;;;7.43;40.22
39555;BME280;25231;48.746;9.234;2023-04-05T13:32:24;96942.69;;;7.56;39.41
39555;BME280;25231;48.746;9.234;2023-04-05T13:34:49;96936.25;;;7.59;40.43
39555;BME280;25231;48.746;9.234;2023-04-05T13:37:15;96939.28;;;7.49;40.41